createdAt,value
2023-08-11T00:02:06.696Z,101672.16
2023-08-11T00:04:33.503Z,101676.53
2023-08-11T00:07:00.399Z,101669.69
2023-08-11T00:09:27.830Z,101670.81
2023-08-11T00:11:54.688Z,101672.41
2023-08-11T00:14:21.536Z,101667.78
2023-08-11T00:16:48.583Z,101674.81
2023-08-11T00:19:15.478Z,101669.69
2023-08-11T00:21:42.675Z,101664.16
2023-08-11T00:24:09.584Z,101670.38
2023-08-11T00:26:36.453Z,101661.13
2023-08-11T00:29:04.122Z,101663.59
2023-08-11T00:31:31.067Z,101666.31
2023-08-11T00:33:58.110Z,101666.03
2023-08-11T00:36:25.369Z,101660.00
2023-08-11T00:38:52.303Z,101669.84
2023-08-11T00:41:19.333Z,101657.50
2023-08-11T00:43:46.285Z,101658.63
2023-08-11T00:46:14.587Z,101664.34
2023-08-11T00:48:43.490Z,101668.69
2023-08-11T00:51:15.817Z,101664.56
2023-08-11T00:53:43.146Z,101656.66
2023-08-11T00:56:10.140Z,101653.94
2023-08-11T00:58:38.902Z,101655.03
2023-08-11T01:01:05.961Z,101655.03
2023-08-11T01:03:33.200Z,101656.88
2023-08-11T01:06:29.393Z,101654.41
2023-08-11T01:09:20.753Z,101650.03
2023-08-11T01:12:06.279Z,101653.56
2023-08-11T01:15:09.807Z,101649.44
2023-08-11T01:17:40.179Z,101651.41
2023-08-11T01:20:12.018Z,101647.34
2023-08-11T01:22:45.762Z,101645.97
2023-08-11T01:25:13.584Z,101643.50
2023-08-11T01:27:45.504Z,101643.72
2023-08-11T01:30:13.494Z,101645.88
2023-08-11T01:32:40.657Z,101644.22
2023-08-11T01:35:08.031Z,101643.63
2023-08-11T01:37:34.922Z,101643.34
2023-08-11T01:40:01.806Z,101646.63
2023-08-11T01:42:28.755Z,101634.84
2023-08-11T01:44:57.006Z,101642.78
2023-08-11T01:47:25.862Z,101642.22
2023-08-11T01:49:52.822Z,101646.28
2023-08-11T01:52:20.930Z,101641.66
2023-08-11T01:54:47.829Z,101641.84
2023-08-11T01:57:15.126Z,101636.63
2023-08-11T01:59:42.178Z,101639.09
2023-08-11T02:02:09.817Z,101637.34
2023-08-11T02:04:36.747Z,101640.94
2023-08-11T02:07:03.657Z,101634.38
2023-08-11T02:09:30.566Z,101637.59
2023-08-11T02:11:57.363Z,101638.13
2023-08-11T02:14:24.194Z,101635.34
2023-08-11T02:16:51.101Z,101636.31
2023-08-11T02:19:17.995Z,101640.75
2023-08-11T02:21:45.310Z,101649.75
2023-08-11T02:24:12.174Z,101647.34
2023-08-11T02:26:39.004Z,101637.78
2023-08-11T02:29:05.818Z,101645.88
2023-08-11T02:31:34.172Z,101649.94
2023-08-11T02:34:01.558Z,101651.19
2023-08-11T02:36:28.459Z,101639.97
2023-08-11T02:38:56.116Z,101648.34
2023-08-11T02:41:22.950Z,101644.34
2023-08-11T02:43:49.812Z,101645.28
2023-08-11T02:46:16.810Z,101643.78
2023-08-11T02:48:44.408Z,101637.00
2023-08-11T02:51:11.254Z,101637.81
2023-08-11T02:53:38.278Z,101640.59
2023-08-11T02:56:07.942Z,101638.09
2023-08-11T02:58:34.980Z,101628.00
2023-08-11T03:01:02.457Z,101631.84
2023-08-11T03:03:30.026Z,101629.41
2023-08-11T03:05:58.364Z,101628.88
2023-08-11T03:08:25.916Z,101623.69
2023-08-11T03:10:57.169Z,101627.72
2023-08-11T03:13:30.545Z,101627.13
2023-08-11T03:16:00.017Z,101625.88
2023-08-11T03:18:27.765Z,101623.41
2023-08-11T03:21:00.624Z,101628.78
2023-08-11T03:23:37.999Z,101625.63
2023-08-11T03:26:05.685Z,101621.94
2023-08-11T03:28:33.504Z,101625.69
2023-08-11T03:31:00.826Z,101625.97
2023-08-11T03:33:28.186Z,101621.94
2023-08-11T03:36:03.999Z,101633.06
2023-08-11T03:38:31.288Z,101627.38
2023-08-11T03:40:58.174Z,101631.50
2023-08-11T03:43:25.014Z,101636.09
2023-08-11T03:45:52.965Z,101637.50
2023-08-11T03:48:20.182Z,101633.06
2023-08-11T03:50:47.128Z,101637.38
2023-08-11T03:53:15.357Z,101640.19
2023-08-11T03:55:46.968Z,101634.75
2023-08-11T03:58:16.326Z,101634.22
2023-08-11T04:00:45.082Z,101627.94
2023-08-11T04:03:14.143Z,101642.06
2023-08-11T04:05:41.086Z,101639.59
2023-08-11T04:08:08.411Z,101645.81
2023-08-11T04:10:36.401Z,101647.94
2023-08-11T04:13:03.374Z,101636.25
2023-08-11T04:15:32.473Z,101641.69
2023-08-11T04:17:59.429Z,101638.38
2023-08-11T04:20:26.507Z,101641.38
2023-08-11T04:22:53.354Z,101639.75
2023-08-11T04:25:20.279Z,101651.09
2023-08-11T04:27:48.800Z,101648.00
2023-08-11T04:30:15.995Z,101651.25
2023-08-11T04:32:46.099Z,101649.59
2023-08-11T04:35:13.968Z,101648.19
2023-08-11T04:37:42.583Z,101655.03
2023-08-11T04:40:12.327Z,101651.34
2023-08-11T04:42:41.907Z,101652.19
2023-08-11T04:45:11.853Z,101655.72
2023-08-11T04:47:40.313Z,101655.38
2023-08-11T04:50:09.503Z,101656.47
2023-08-11T04:52:36.703Z,101661.47
2023-08-11T04:55:04.615Z,101663.22
2023-08-11T04:57:31.501Z,101664.78
2023-08-11T04:59:59.899Z,101655.22
2023-08-11T05:02:26.904Z,101661.47
2023-08-11T05:04:54.170Z,101662.31
2023-08-11T05:07:21.826Z,101665.50
2023-08-11T05:09:49.113Z,101667.50
2023-08-11T05:12:17.520Z,101671.84
2023-08-11T05:14:44.462Z,101665.94
2023-08-11T05:17:11.759Z,101669.31
2023-08-11T05:19:38.892Z,101675.75
2023-08-11T05:22:05.903Z,101665.13
2023-08-11T05:24:32.808Z,101669.19
2023-08-11T05:26:59.594Z,101675.00
2023-08-11T05:29:27.307Z,101674.63
2023-08-11T05:31:54.106Z,101678.22
2023-08-11T05:34:21.028Z,101676.28
2023-08-11T05:36:47.909Z,101680.97
2023-08-11T05:39:14.825Z,101682.19
2023-08-11T05:41:42.595Z,101678.22
2023-08-11T05:44:09.711Z,101683.50
2023-08-11T05:46:36.839Z,101682.44
2023-08-11T05:49:04.241Z,101686.78
2023-08-11T05:51:31.123Z,101688.19
2023-08-11T05:53:58.082Z,101678.31
2023-08-11T05:56:24.926Z,101688.63
2023-08-11T05:58:51.658Z,101691.72
2023-08-11T06:01:18.489Z,101686.97
2023-08-11T06:03:45.543Z,101692.16
2023-08-11T06:06:12.370Z,101698.34
2023-08-11T06:08:39.319Z,101697.72
2023-08-11T06:11:06.145Z,101704.25
2023-08-11T06:13:32.979Z,101708.28
2023-08-11T06:15:59.843Z,101704.25
2023-08-11T06:18:26.877Z,101705.88
2023-08-11T06:20:54.367Z,101715.31
2023-08-11T06:23:21.383Z,101718.38
2023-08-11T06:25:48.267Z,101719.50
2023-08-11T06:28:15.507Z,101713.88
2023-08-11T06:30:42.402Z,101724.31
2023-08-11T06:33:09.355Z,101721.13
2023-08-11T06:35:36.333Z,101726.13
2023-08-11T06:38:03.497Z,101714.91
2023-08-11T06:40:30.970Z,101716.06
2023-08-11T06:42:57.918Z,101732.03
2023-08-11T06:45:24.866Z,101718.19
2023-08-11T06:47:52.788Z,101721.91
2023-08-11T06:50:20.151Z,101719.06
2023-08-11T06:52:46.983Z,101714.28
2023-08-11T06:55:13.784Z,101717.31
2023-08-11T06:57:40.700Z,101725.66
2023-08-11T07:00:11.224Z,101717.06
2023-08-11T07:02:38.108Z,101717.50
2023-08-11T07:05:05.556Z,101715.94
2023-08-11T07:07:32.579Z,101720.44
2023-08-11T07:10:03.395Z,101720.19
2023-08-11T07:12:31.000Z,101724.94
2023-08-11T07:14:57.837Z,101722.25
2023-08-11T07:17:25.439Z,101728.63
2023-08-11T07:19:52.365Z,101729.56
2023-08-11T07:22:19.253Z,101722.81
2023-08-11T07:24:46.082Z,101719.59
2023-08-11T07:27:12.909Z,101720.19
2023-08-11T07:29:39.850Z,101723.00
2023-08-11T07:32:06.969Z,101721.13
2023-08-11T07:34:33.891Z,101724.94
2023-08-11T07:37:00.716Z,101723.91
2023-08-11T07:39:27.534Z,101714.91
2023-08-11T07:41:54.462Z,101721.47
2023-08-11T07:44:21.365Z,101723.69
2023-08-11T07:46:48.340Z,101722.63
2023-08-11T07:49:15.219Z,101721.81
2023-08-11T07:51:42.525Z,101724.00
2023-08-11T07:54:09.943Z,101718.78
2023-08-11T07:56:36.957Z,101721.50
2023-08-11T07:59:04.005Z,101727.28
2023-08-11T08:01:31.005Z,101723.44
2023-08-11T08:03:58.009Z,101728.91
2023-08-11T08:06:25.227Z,101732.97
2023-08-11T08:08:52.161Z,101731.59
2023-08-11T08:11:19.385Z,101729.94
2023-08-11T08:13:46.363Z,101725.78
2023-08-11T08:16:13.539Z,101729.06
2023-08-11T08:18:40.370Z,101733.13
2023-08-11T08:21:07.280Z,101739.41
2023-08-11T08:23:34.131Z,101735.56
2023-08-11T08:26:01.002Z,101734.72
2023-08-11T08:28:27.852Z,101724.59
2023-08-11T08:30:54.686Z,101729.75
2023-08-11T08:33:21.666Z,101727.72
2023-08-11T08:35:48.618Z,101725.53
2023-08-11T08:38:15.896Z,101732.91
2023-08-11T08:40:42.961Z,101724.88
2023-08-11T08:43:10.066Z,101726.19
2023-08-11T08:45:38.748Z,101727.75
2023-08-11T08:48:12.795Z,101726.59
2023-08-11T08:50:40.124Z,101727.22
2023-08-11T08:53:06.982Z,101724.19
2023-08-11T08:55:34.651Z,101726.28
2023-08-11T08:58:02.070Z,101731.94
2023-08-11T09:00:29.397Z,101732.09
2023-08-11T09:02:58.942Z,101727.31
2023-08-11T09:05:26.785Z,101728.63
2023-08-11T09:07:53.917Z,101725.06
2023-08-11T09:10:21.685Z,101722.09
2023-08-11T09:12:49.773Z,101724.63
2023-08-11T09:15:16.623Z,101724.16
2023-08-11T09:17:43.630Z,101718.66
2023-08-11T09:20:13.730Z,101722.00
2023-08-11T09:22:41.480Z,101725.75
2023-08-11T09:25:09.046Z,101726.91
2023-08-11T09:27:35.940Z,101722.56
2023-08-11T09:30:03.585Z,101715.41
2023-08-11T09:32:34.356Z,101717.91
2023-08-11T09:35:25.016Z,101712.69
2023-08-11T09:37:56.031Z,101711.59
2023-08-11T09:40:25.696Z,101706.53
2023-08-11T09:42:56.441Z,101708.22
2023-08-11T09:45:26.829Z,101706.75
2023-08-11T09:47:53.759Z,101706.44
2023-08-11T09:50:22.106Z,101711.91
2023-08-11T09:52:49.679Z,101705.78
2023-08-11T09:55:17.544Z,101707.59
2023-08-11T09:57:45.344Z,101705.94
2023-08-11T10:00:13.903Z,101706.78
2023-08-11T10:03:00.376Z,101704.50
2023-08-11T10:05:30.859Z,101707.34
2023-08-11T10:08:00.084Z,101697.81
2023-08-11T10:10:28.474Z,101702.69
2023-08-11T10:13:23.316Z,101697.44
2023-08-11T10:15:52.993Z,101697.44
2023-08-11T10:18:24.928Z,101699.34
2023-08-11T10:20:52.894Z,101696.53
2023-08-11T10:23:20.394Z,101698.50
2023-08-11T10:25:48.624Z,101696.97
2023-08-11T10:28:18.129Z,101706.78
2023-08-11T10:30:45.009Z,101702.16
2023-08-11T10:33:12.262Z,101703.06
